This is the latest recevied weather packets stored in our database for station/object 9W2RUT-G. If no packets are shown the sender has not sent any weather packets the latest 10 day(s).
| Time | Temp. | Humidity | Pressure | Rain* | Wind** | Luminosity | Snow |
|---|---|---|---|---|---|---|---|
| 1778015736 | 25° C | 30% | 1011.1 hPa | - | - | - | - |
| 1778014836 | 25° C | 29% | 1011 hPa | - | - | - | - |
| 1778013935 | 25° C | 29% | 1011 hPa | - | - | - | - |
| 1778013035 | 25° C | 32% | 1011.2 hPa | - | - | - | - |
| 1778012134 | 25° C | 35% | 1011.2 hPa | - | - | - | - |
| 1778011234 | 25.56° C | 37% | 1011.1 hPa | - | - | - | - |
| 1778010334 | 25° C | 37% | 1011.2 hPa | - | - | - | - |
| 1778009434 | 25.56° C | 32% | 1011 hPa | - | - | - | - |
| 1778008534 | 25.56° C | 32% | 1011.4 hPa | - | - | - | - |
| 1778007633 | 25° C | 33% | 1011.8 hPa | - | - | - | - |
| 1778006733 | 25.56° C | 30% | 1011.9 hPa | - | - | - | - |
| 1778005833 | 25° C | 30% | 1012.1 hPa | - | - | - | - |
| 1778004932 | 25.56° C | 29% | 1012.2 hPa | - | - | - | - |
| 1778004032 | 25.56° C | 29% | 1012.3 hPa | - | - | - | - |
| 1778003132 | 25.56° C | 31% | 1012.4 hPa | - | - | - | - |
| 1778002232 | 25.56° C | 30% | 1012.3 hPa | - | - | - | - |
| 1778001331 | 25.56° C | 31% | 1012.4 hPa | - | - | - | - |
| 1778000431 | 25.56° C | 33% | 1012.6 hPa | - | - | - | - |
| 1777999530 | 25.56° C | 35% | 1012.6 hPa | - | - | - | - |
| 1777998630 | 25.56° C | 33% | 1012.5 hPa | - | - | - | - |
| 1777997729 | 25.56° C | 30% | 1012.7 hPa | - | - | - | - |
| 1777996829 | 23.89° C | 31% | 1012.8 hPa | - | - | - | - |
| 1777995948 | 26.67° C | 27% | 1012.5 hPa | - | - | - | - |
| 1777995048 | 26.67° C | 28% | 1012.5 hPa | - | - | - | - |
| 1777994148 | 26.11° C | 29% | 1012.4 hPa | - | - | - | - |
* Rain since midnight (hover to see other rain measurements)
** Current wind speed in m/s (hover to see current wind gust speed)